Terminal Aerodrome Forecast
Issued by NWS

Home | Current Version | Previous Version | Graphics & Text | Print | Product List | Glossary On
Versions: 1 2 3 4 5 6 7 8 9 10 11 12 13 14 15 16 17 18 19 20 21 22 23 24 25 26 27 28 29
453
FTUS43 KPAH 192320
TAFOWB
TAF
KOWB 192320Z 2000/2024 VRB04KT P6SM FEW040
     FM200900 00000KT 4SM BR FEW060
     FM201300 19007KT P6SM SCT050=

USA.gov is the U.S. government's official web portal to all federal, state and local government web resources and services.